Time;durP1;ratioP1;P1;durP2;ratioP2;P2;SDS_P1;SDS_P2;PMS_P1;PMS_P2;Temp;Humidity;BMP_temperature;BMP_pressure;BME280_temperature;BME280_humidity;BME280_pressure;Samples;Min_cycle;Max_cycle;Signal;HPM_P1;HPM_P2
2021/10/25 00:00:52;;;;;;;4.97;1.33;;;12.10;99.90;;;;;;4998837;28;20234;-85
2021/10/25 00:03:24;;;;;;;2.93;1.10;;;12.00;99.90;;;;;;5006407;28;20210;-85
2021/10/25 00:05:56;;;;;;;5.37;1.10;;;11.90;99.90;;;;;;5007844;28;20251;-85
2021/10/25 00:08:27;;;;;;;3.60;0.90;;;11.90;99.90;;;;;;5002839;28;20230;-86
2021/10/25 00:10:59;;;;;;;4.50;1.00;;;11.80;99.90;;;;;;4982857;28;20207;-84
2021/10/25 00:13:30;;;;;;;3.20;1.30;;;11.70;99.90;;;;;;4963624;28;20332;-86
2021/10/25 00:16:04;;;;;;;4.00;1.50;;;11.60;99.90;;;;;;4940899;29;20210;-85
2021/10/25 00:18:38;;;;;;;1.93;1.00;;;11.50;99.90;;;;;;4960223;28;20222;-84
2021/10/25 00:21:09;;;;;;;3.60;1.03;;;11.50;99.90;;;;;;4963915;28;20204;-84
2021/10/25 00:23:41;;;;;;;8.43;1.60;;;11.50;99.90;;;;;;4974642;29;20255;-86
2021/10/25 00:26:13;;;;;;;3.37;1.20;;;11.60;99.90;;;;;;4966910;28;20219;-86
2021/10/25 00:28:47;;;;;;;3.93;1.40;;;11.70;99.90;;;;;;4963446;29;20239;-85
2021/10/25 00:31:22;;;;;;;3.63;1.27;;;11.70;99.90;;;;;;4973508;28;20238;-86
2021/10/25 00:33:54;;;;;;;4.23;1.40;;;11.70;99.90;;;;;;4973385;28;20235;-85
2021/10/25 00:36:25;;;;;;;6.43;1.70;;;11.70;99.90;;;;;;4973495;29;20199;-85
2021/10/25 00:38:59;;;;;;;7.03;1.63;;;11.70;99.90;;;;;;4974562;28;20216;-84
2021/10/25 00:41:32;;;;;;;2.30;1.20;;;11.70;99.90;;;;;;4958833;29;20214;-86
2021/10/25 00:44:03;;;;;;;4.87;1.30;;;11.70;99.90;;;;;;4972310;28;20204;-86
2021/10/25 00:46:38;;;;;;;7.03;1.60;;;11.70;99.90;;;;;;4984168;28;20203;-85
2021/10/25 00:49:10;;;;;;;3.17;1.60;;;11.60;99.90;;;;;;4993133;28;20230;-86
2021/10/25 00:51:43;;;;;;;5.43;1.40;;;11.40;99.90;;;;;;4995867;28;20211;-86
2021/10/25 00:54:15;;;;;;;4.83;1.60;;;11.40;99.90;;;;;;4995391;28;20258;-86
2021/10/25 00:56:49;;;;;;;4.07;1.50;;;11.30;99.90;;;;;;4996105;28;20207;-86
2021/10/25 00:59:20;;;;;;;5.70;1.57;;;11.40;99.90;;;;;;4977194;28;20290;-85
2021/10/25 01:01:55;;;;;;;5.77;1.77;;;11.40;99.90;;;;;;4993485;28;20287;-84
2021/10/25 01:04:31;;;;;;;4.87;1.23;;;11.40;99.90;;;;;;4996745;28;20603;-87
2021/10/25 01:07:03;;;;;;;4.80;1.60;;;11.40;99.90;;;;;;4991866;28;20230;-86
2021/10/25 01:09:37;;;;;;;4.37;1.43;;;11.40;99.90;;;;;;4993002;28;20206;-86
2021/10/25 01:12:09;;;;;;;6.57;1.90;;;11.40;99.90;;;;;;4991864;28;20225;-85
2021/10/25 01:14:41;;;;;;;5.23;2.10;;;11.30;99.90;;;;;;4994135;28;20218;-85
2021/10/25 01:17:15;;;;;;;5.93;2.60;;;11.20;99.90;;;;;;4998264;28;20210;-86
2021/10/25 01:19:47;;;;;;;4.70;1.70;;;11.10;99.90;;;;;;4982916;28;20230;-85
2021/10/25 01:22:23;;;;;;;4.33;1.90;;;11.10;99.90;;;;;;5018066;28;20206;-85
2021/10/25 01:24:56;;;;;;;4.27;1.40;;;11.00;99.90;;;;;;5015022;28;20264;-91
2021/10/25 01:27:30;;;;;;;6.67;1.93;;;10.90;99.90;;;;;;5016774;28;20230;-86
2021/10/25 01:30:02;;;;;;;6.03;1.70;;;10.90;99.90;;;;;;4996653;28;20214;-86
2021/10/25 01:32:33;;;;;;;4.63;1.80;;;10.80;99.90;;;;;;5014124;28;20206;-86
2021/10/25 01:35:05;;;;;;;6.10;1.83;;;10.90;99.90;;;;;;5000045;28;20262;-85
2021/10/25 01:37:41;;;;;;;3.43;1.50;;;10.80;99.90;;;;;;4993253;28;20238;-85
2021/10/25 01:40:14;;;;;;;8.47;1.60;;;10.80;99.90;;;;;;4990140;28;20676;-86
2021/10/25 01:42:46;;;;;;;6.37;1.83;;;10.90;99.90;;;;;;4976472;28;20238;-86
2021/10/25 01:45:18;;;;;;;5.43;1.90;;;11.00;99.90;;;;;;4988684;28;20701;-86
2021/10/25 01:47:49;;;;;;;3.00;1.50;;;11.20;99.90;;;;;;4991772;28;20258;-86
2021/10/25 01:50:21;;;;;;;4.37;1.60;;;11.20;99.90;;;;;;4979806;28;20226;-86
2021/10/25 01:52:58;;;;;;;5.57;1.60;;;11.10;99.90;;;;;;4996997;28;20215;-86
2021/10/25 01:55:30;;;;;;;7.20;2.20;;;11.20;99.90;;;;;;4972666;28;20207;-86
2021/10/25 01:58:02;;;;;;;4.53;1.80;;;11.10;99.90;;;;;;4957683;28;20215;-86
2021/10/25 02:00:34;;;;;;;4.90;2.03;;;11.10;99.90;;;;;;4971363;29;20195;-85
2021/10/25 02:03:07;;;;;;;5.83;1.97;;;11.10;99.90;;;;;;4975608;29;20219;-83
2021/10/25 02:05:42;;;;;;;5.30;2.20;;;11.10;99.90;;;;;;4974854;29;20224;-84
2021/10/25 02:08:21;;;;;;;4.77;2.10;;;11.10;99.90;;;;;;4976260;28;20702;-84
2021/10/25 02:10:53;;;;;;;8.23;3.50;;;11.10;99.90;;;;;;4973661;28;20310;-85
2021/10/25 02:13:25;;;;;;;14.53;10.03;;;11.00;99.90;;;;;;4970065;28;20231;-85
2021/10/25 02:15:58;;;;;;;11.10;7.13;;;10.90;99.90;;;;;;4976631;28;20204;-86
2021/10/25 02:18:30;;;;;;;6.00;3.10;;;10.90;99.90;;;;;;4977572;28;20207;-85
2021/10/25 02:21:02;;;;;;;5.00;2.17;;;10.90;99.90;;;;;;4982935;28;20207;-86
2021/10/25 02:23:37;;;;;;;5.83;2.20;;;10.80;99.90;;;;;;5003871;28;20207;-85
2021/10/25 02:26:17;;;;;;;4.57;2.47;;;10.80;99.90;;;;;;4992703;28;20207;-88
2021/10/25 02:28:52;;;;;;;5.03;1.80;;;10.70;99.90;;;;;;4996015;28;20246;-87
2021/10/25 02:31:26;;;;;;;4.67;2.17;;;10.70;99.90;;;;;;4990573;28;20672;-87
2021/10/25 02:34:03;;;;;;;8.50;3.33;;;10.60;99.90;;;;;;4999448;28;20212;-86
2021/10/25 02:36:47;;;;;;;5.60;2.30;;;10.60;99.90;;;;;;4991790;28;20238;-86
2021/10/25 02:39:25;;;;;;;5.57;2.00;;;10.70;99.90;;;;;;5002651;28;20233;-86
2021/10/25 02:41:58;;;;;;;4.03;1.70;;;10.80;99.90;;;;;;5010029;28;20195;-86
2021/10/25 02:44:30;;;;;;;5.80;1.80;;;10.90;99.90;;;;;;4997847;28;20210;-87
2021/10/25 02:49:53;;;;;;;4.63;1.77;;;11.10;99.90;;;;;;4991720;28;20239;-87
2021/10/25 02:52:30;;;;;;;6.40;1.57;;;11.10;99.90;;;;;;5012433;28;20221;-86
2021/10/25 02:55:09;;;;;;;6.57;1.80;;;11.10;99.90;;;;;;5000919;28;20203;-87
2021/10/25 02:57:42;;;;;;;3.83;1.40;;;11.10;99.90;;;;;;4994451;28;20203;-86
2021/10/25 03:00:15;;;;;;;6.07;1.47;;;11.00;99.90;;;;;;4974232;28;20203;-86
2021/10/25 03:02:49;;;;;;;4.33;1.87;;;10.90;99.90;;;;;;5005521;28;20194;-86
2021/10/25 03:05:22;;;;;;;4.77;2.40;;;10.80;99.90;;;;;;4991575;28;20206;-84
2021/10/25 03:07:55;;;;;;;8.27;5.87;;;10.80;99.90;;;;;;4986692;28;20221;-85
2021/10/25 03:10:33;;;;;;;10.93;6.17;;;10.70;99.90;;;;;;5006894;28;20205;-85
2021/10/25 03:13:07;;;;;;;11.27;5.93;;;10.70;99.90;;;;;;5008358;28;20214;-85
2021/10/25 03:15:38;;;;;;;7.13;3.20;;;10.70;99.90;;;;;;4995313;28;20218;-86
2021/10/25 03:18:16;;;;;;;2.83;1.77;;;10.50;99.90;;;;;;4991972;28;20199;-86
2021/10/25 03:20:51;;;;;;;5.97;1.73;;;10.60;99.90;;;;;;4989471;28;20225;-86
2021/10/25 03:23:28;;;;;;;3.93;1.30;;;10.60;99.90;;;;;;5002636;28;20264;-85
2021/10/25 03:26:12;;;;;;;3.70;1.80;;;10.90;99.90;;;;;;5014048;28;20258;-87
2021/10/25 03:28:45;;;;;;;4.20;1.40;;;10.90;99.90;;;;;;5003780;28;20269;-86
2021/10/25 03:31:18;;;;;;;4.37;2.67;;;11.10;99.90;;;;;;4989281;28;20250;-86
2021/10/25 03:36:54;;;;;;;4.10;1.20;;;11.80;99.90;;;;;;4992661;28;20215;-86
2021/10/25 03:39:31;;;;;;;4.83;1.20;;;12.00;99.90;;;;;;4995565;28;20183;-85
2021/10/25 03:42:11;;;;;;;5.43;1.50;;;12.10;99.90;;;;;;5018804;23;20257;-85
2021/10/25 03:44:46;;;;;;;5.73;1.47;;;12.10;99.90;;;;;;5000804;28;20245;-85
2021/10/25 03:47:22;;;;;;;4.20;1.40;;;12.10;99.90;;;;;;5391544;22;20226;-85
2021/10/25 03:50:18;;;;;;;6.90;1.33;;;12.00;99.90;;;;;;5015283;28;20230;-86
2021/10/25 03:52:58;;;;;;;3.20;1.00;;;12.00;99.90;;;;;;5017572;28;20220;-85
2021/10/25 03:55:39;;;;;;;4.20;1.20;;;12.10;99.90;;;;;;5021983;28;20198;-84
2021/10/25 04:01:25;;;;;;;2.83;0.90;;;12.20;99.90;;;;;;4954422;28;20208;-85
2021/10/25 04:04:17;;;;;;;6.20;1.37;;;12.10;99.90;;;;;;4985160;28;20211;-86
2021/10/25 04:27:16;;;;;;;4.50;0.97;;;11.60;99.90;;;;;;5032769;28;20202;-85
2021/10/25 04:29:50;;;;;;;2.73;1.10;;;11.60;99.90;;;;;;5030349;28;20276;-85
2021/10/25 04:32:24;;;;;;;7.63;1.23;;;11.50;99.90;;;;;;5006754;28;20197;-85
2021/10/25 04:34:56;;;;;;;3.43;1.20;;;11.40;99.90;;;;;;5019018;28;20213;-84
2021/10/25 04:37:29;;;;;;;2.77;1.07;;;11.30;99.90;;;;;;5023850;28;20203;-85
2021/10/25 04:40:09;;;;;;;3.53;1.20;;;11.20;99.90;;;;;;5611279;22;20252;-86
2021/10/25 04:42:42;;;;;;;3.20;1.03;;;11.10;99.90;;;;;;5012562;28;20207;-85
2021/10/25 04:45:18;;;;;;;2.50;0.90;;;11.10;99.90;;;;;;5006754;28;20197;-86
2021/10/25 04:47:54;;;;;;;5.27;1.03;;;11.10;99.90;;;;;;5007281;28;20214;-86
2021/10/25 04:50:27;;;;;;;3.47;1.20;;;11.00;99.90;;;;;;5016606;28;20599;-84
2021/10/25 04:52:59;;;;;;;3.70;1.00;;;11.20;99.90;;;;;;5004156;28;20269;-84
2021/10/25 04:55:34;;;;;;;3.37;1.03;;;11.20;99.90;;;;;;5018948;28;20201;-85
2021/10/25 04:58:07;;;;;;;3.57;1.20;;;11.20;99.90;;;;;;5001234;28;20630;-87
2021/10/25 05:00:39;;;;;;;3.97;0.97;;;11.20;99.90;;;;;;5038040;23;20388;-84
2021/10/25 05:03:17;;;;;;;4.83;0.90;;;11.40;99.90;;;;;;5025583;28;20205;-84
2021/10/25 05:05:49;;;;;;;3.57;1.27;;;11.50;99.90;;;;;;5008183;28;20300;-84
2021/10/25 05:08:26;;;;;;;6.33;1.60;;;11.50;99.90;;;;;;5020149;28;20205;-85
2021/10/25 05:11:03;;;;;;;2.60;1.10;;;11.50;99.90;;;;;;5020367;28;20237;-84
2021/10/25 05:13:35;;;;;;;4.23;1.17;;;11.70;99.90;;;;;;5021179;28;20634;-85
2021/10/25 05:16:08;;;;;;;1.47;0.87;;;12.00;99.90;;;;;;5004129;28;20221;-85
2021/10/25 05:18:45;;;;;;;2.97;0.90;;;12.10;99.90;;;;;;5021667;28;20208;-84
2021/10/25 05:21:16;;;;;;;2.10;1.90;;;12.20;99.90;;;;;;5019017;28;20201;-85
2021/10/25 05:23:48;;;;;;;3.60;0.93;;;12.20;99.90;;;;;;5020688;28;20206;-85
2021/10/25 05:26:20;;;;;;;2.53;0.80;;;12.20;99.90;;;;;;5020096;28;20648;-86
2021/10/25 05:28:53;;;;;;;2.50;0.93;;;12.30;99.90;;;;;;5027641;28;20261;-85
2021/10/25 05:31:24;;;;;;;3.43;0.73;;;12.30;99.90;;;;;;4993665;28;20197;-85
2021/10/25 05:33:59;;;;;;;4.20;1.00;;;12.20;99.90;;;;;;5013066;28;20592;-85
2021/10/25 05:36:30;;;;;;;2.30;0.80;;;12.30;99.90;;;;;;5001917;28;20202;-85
2021/10/25 05:39:02;;;;;;;3.17;0.73;;;12.20;99.90;;;;;;5001883;28;20206;-85
2021/10/25 05:41:34;;;;;;;3.10;0.70;;;12.40;99.90;;;;;;5010877;28;20543;-86
2021/10/25 05:44:07;;;;;;;3.23;0.87;;;12.40;99.90;;;;;;5008235;28;20210;-85
2021/10/25 05:46:40;;;;;;;3.33;1.00;;;12.50;99.90;;;;;;5007440;28;20604;-86
2021/10/25 05:49:14;;;;;;;2.43;0.77;;;12.50;99.90;;;;;;5006211;28;20244;-85
2021/10/25 05:51:45;;;;;;;3.60;1.50;;;12.40;99.90;;;;;;5021821;28;20318;-86
2021/10/25 05:54:22;;;;;;;4.20;0.77;;;12.40;99.90;;;;;;5013432;28;20225;-86
2021/10/25 05:56:55;;;;;;;3.83;1.00;;;12.60;99.90;;;;;;5006612;28;20211;-85
2021/10/25 05:59:27;;;;;;;3.53;0.90;;;12.50;99.90;;;;;;5003747;28;20206;-83
2021/10/25 06:02:08;;;;;;;2.77;0.83;;;12.60;99.90;;;;;;5005329;28;20236;-84
2021/10/25 06:04:42;;;;;;;2.13;0.77;;;12.60;99.90;;;;;;5001047;28;20217;-85
2021/10/25 06:07:13;;;;;;;3.70;1.30;;;12.60;99.90;;;;;;4997384;28;20538;-86
2021/10/25 06:09:45;;;;;;;1.83;0.57;;;12.50;99.90;;;;;;4998632;28;20269;-86
2021/10/25 06:12:18;;;;;;;2.93;0.60;;;12.50;99.90;;;;;;4987270;28;20557;-86
2021/10/25 06:14:51;;;;;;;5.27;0.97;;;12.60;99.90;;;;;;5008553;28;20604;-85
2021/10/25 06:17:25;;;;;;;2.83;0.87;;;12.70;99.90;;;;;;4992701;28;20226;-85
2021/10/25 06:19:58;;;;;;;1.80;0.60;;;12.70;99.90;;;;;;4998984;28;20226;-86
2021/10/25 06:22:31;;;;;;;1.73;0.67;;;12.60;99.90;;;;;;4998326;28;20248;-84
2021/10/25 06:25:02;;;;;;;2.00;0.63;;;12.60;99.90;;;;;;4998072;28;20289;-85
2021/10/25 06:27:34;;;;;;;2.77;0.80;;;12.50;99.90;;;;;;4996207;28;20211;-86
2021/10/25 06:30:06;;;;;;;2.53;0.73;;;12.50;99.90;;;;;;4994139;28;20268;-86
2021/10/25 06:32:37;;;;;;;1.67;0.70;;;12.60;99.90;;;;;;4998997;28;20242;-85
2021/10/25 06:35:14;;;;;;;5.10;1.30;;;12.70;99.90;;;;;;4989219;28;20251;-85
2021/10/25 06:37:56;;;;;;;2.43;0.70;;;12.70;99.90;;;;;;4978075;28;20234;-84
2021/10/25 06:40:28;;;;;;;2.47;0.80;;;12.80;99.90;;;;;;4977961;28;20570;-85
2021/10/25 06:43:00;;;;;;;3.57;1.20;;;12.80;99.90;;;;;;4978074;28;20657;-86
2021/10/25 06:45:31;;;;;;;3.10;0.80;;;12.80;99.90;;;;;;4989461;28;20225;-84
2021/10/25 06:48:02;;;;;;;2.23;0.80;;;12.90;99.90;;;;;;4996383;28;20235;-84
2021/10/25 06:50:39;;;;;;;2.47;0.87;;;12.80;99.90;;;;;;4983155;28;20230;-86
2021/10/25 06:53:10;;;;;;;4.03;0.90;;;12.70;99.90;;;;;;4997683;28;20272;-85
2021/10/25 06:55:41;;;;;;;5.37;1.17;;;12.70;99.90;;;;;;4987897;28;20727;-84
2021/10/25 06:58:13;;;;;;;4.30;0.87;;;12.70;99.90;;;;;;4982149;28;20221;-85
2021/10/25 07:00:44;;;;;;;4.23;1.07;;;12.60;99.90;;;;;;4983507;28;20752;-86
2021/10/25 07:03:16;;;;;;;4.07;0.83;;;12.60;99.90;;;;;;4984979;28;20211;-86
2021/10/25 07:05:49;;;;;;;5.53;1.40;;;12.50;99.90;;;;;;4997847;28;20206;-85
2021/10/25 07:08:22;;;;;;;2.53;0.80;;;12.50;99.90;;;;;;4979375;28;20555;-85
2021/10/25 07:10:54;;;;;;;3.40;0.83;;;12.60;99.90;;;;;;4977358;28;21060;-85
2021/10/25 07:13:25;;;;;;;4.47;1.27;;;12.50;99.90;;;;;;4977886;28;20665;-86
2021/10/25 07:16:01;;;;;;;3.87;0.80;;;12.60;99.90;;;;;;4976555;28;20235;-86
2021/10/25 07:18:36;;;;;;;5.93;1.00;;;12.50;99.90;;;;;;4977252;28;20206;-85
2021/10/25 08:00:55;;;;;;;2.93;1.00;;;12.80;99.90;;;;;;4982219;28;20211;-84
2021/10/25 08:06:21;;;;;;;3.63;0.90;;;12.70;99.90;;;;;;4982253;28;20211;-85
2021/10/25 08:09:05;;;;;;;3.20;0.87;;;12.90;99.90;;;;;;4996214;28;20273;-84
2021/10/25 08:11:43;;;;;;;7.37;0.90;;;12.90;99.90;;;;;;5009466;28;20229;-85
2021/10/25 08:14:30;;;;;;;2.93;1.10;;;12.80;99.90;;;;;;4999872;28;20230;-84
2021/10/25 08:17:01;;;;;;;1.77;0.80;;;12.70;99.90;;;;;;4995574;28;20205;-84
2021/10/25 08:19:33;;;;;;;3.23;0.97;;;12.80;99.90;;;;;;4995513;28;20203;-85
2021/10/25 08:22:14;;;;;;;3.93;1.10;;;12.80;99.90;;;;;;5012573;28;20281;-85
2021/10/25 08:24:47;;;;;;;2.00;1.00;;;12.80;99.90;;;;;;5005346;28;20226;-85
2021/10/25 08:27:22;;;;;;;2.20;0.80;;;12.90;99.90;;;;;;4975963;28;20211;-85
2021/10/25 08:29:54;;;;;;;4.77;1.23;;;12.90;99.90;;;;;;4976266;28;20218;-84
2021/10/25 08:32:41;;;;;;;1.60;0.77;;;12.80;99.90;;;;;;4963395;28;20243;-85
2021/10/25 08:35:27;;;;;;;3.07;1.13;;;12.80;99.90;;;;;;4984242;28;20206;-85
2021/10/25 08:40:46;;;;;;;3.07;0.70;;;12.90;99.90;;;;;;4998486;28;20206;-85
2021/10/25 08:43:19;;;;;;;3.10;0.80;;;12.90;99.90;;;;;;4990042;28;20207;-84
2021/10/25 08:45:55;;;;;;;2.57;0.70;;;12.80;99.90;;;;;;4988252;28;20198;-85
2021/10/25 08:48:26;;;;;;;4.53;0.70;;;12.90;99.90;;;;;;5009965;28;20233;-85
2021/10/25 08:50:58;;;;;;;3.23;0.80;;;12.90;99.90;;;;;;4998660;28;20365;-85
2021/10/25 08:53:29;;;;;;;7.67;4.60;;;12.80;99.90;;;;;;5012834;28;20215;-84
2021/10/25 08:56:01;;;;;;;1.97;0.90;;;12.90;99.90;;;;;;5005277;28;20210;-84
2021/10/25 08:58:38;;;;;;;1.43;0.73;;;12.90;99.90;;;;;;5003137;28;20202;-84
2021/10/25 09:01:10;;;;;;;2.93;0.90;;;12.90;99.90;;;;;;4998562;28;20638;-85
2021/10/25 09:03:42;;;;;;;3.00;0.63;;;12.80;99.90;;;;;;4999132;28;20207;-85
2021/10/25 09:06:14;;;;;;;1.93;0.90;;;12.80;99.90;;;;;;4998032;28;20237;-86
2021/10/25 09:08:45;;;;;;;4.37;0.70;;;12.80;99.90;;;;;;4998927;28;20256;-83
2021/10/25 09:11:20;;;;;;;4.40;0.80;;;12.80;99.90;;;;;;4998853;28;20285;-84
2021/10/25 09:13:52;;;;;;;1.87;0.60;;;12.90;99.90;;;;;;4998687;28;20241;-85
2021/10/25 09:16:23;;;;;;;1.73;0.77;;;12.90;99.90;;;;;;4997580;28;20206;-84
2021/10/25 09:18:55;;;;;;;2.97;0.80;;;12.90;99.90;;;;;;4994143;28;20210;-85
2021/10/25 09:21:35;;;;;;;2.17;0.70;;;12.90;99.90;;;;;;4987104;28;20315;-85
2021/10/25 09:24:17;;;;;;;2.73;0.73;;;12.90;99.90;;;;;;4978807;28;20709;-84
2021/10/25 09:26:58;;;;;;;1.00;0.50;;;12.80;99.90;;;;;;4978451;28;20214;-84
2021/10/25 09:29:33;;;;;;;2.57;0.80;;;12.80;99.90;;;;;;4979425;28;20242;-85
2021/10/25 09:32:10;;;;;;;2.50;0.90;;;12.70;99.90;;;;;;4961952;28;20253;-85
2021/10/25 09:34:46;;;;;;;1.90;0.70;;;12.80;99.90;;;;;;4963390;28;20262;-84
2021/10/25 09:37:20;;;;;;;4.43;0.90;;;12.90;99.90;;;;;;4996850;28;20687;-85
2021/10/25 09:39:53;;;;;;;2.17;1.97;;;12.90;99.90;;;;;;4999711;28;20249;-84
2021/10/25 09:51:17;;;;;;;1.80;0.70;;;12.90;99.90;;;;;;5033631;28;20217;-85
2021/10/25 09:54:10;;;;;;;2.73;0.97;;;12.90;99.90;;;;;;5020092;28;20244;-85
2021/10/25 09:56:52;;;;;;;3.57;0.93;;;12.90;99.90;;;;;;5018279;28;20237;-84
2021/10/25 09:59:32;;;;;;;2.23;0.70;;;12.90;99.90;;;;;;5018133;28;20249;-85
2021/10/25 10:02:06;;;;;;;4.27;0.93;;;12.90;99.90;;;;;;5018938;28;20205;-85
2021/10/25 10:04:38;;;;;;;2.10;1.10;;;12.80;99.90;;;;;;5018864;28;20232;-86
2021/10/25 10:07:10;;;;;;;2.27;0.60;;;12.80;99.90;;;;;;5017082;28;20619;-86
2021/10/25 10:09:41;;;;;;;2.53;0.67;;;12.90;99.90;;;;;;5012958;28;20203;-86
2021/10/25 10:12:17;;;;;;;2.60;0.70;;;12.90;99.90;;;;;;5003636;28;20727;-85
2021/10/25 10:14:50;;;;;;;18.37;15.63;;;12.90;99.90;;;;;;4998474;28;20210;-85
2021/10/25 10:17:29;;;;;;;2.77;0.87;;;12.90;99.90;;;;;;5001273;28;20211;-84
2021/10/25 10:20:04;;;;;;;1.37;0.50;;;12.90;99.90;;;;;;5015144;28;20193;-84
2021/10/25 10:22:37;;;;;;;3.50;0.67;;;12.90;99.90;;;;;;5014744;28;20202;-86
2021/10/25 10:25:09;;;;;;;3.07;1.67;;;12.80;99.90;;;;;;5002873;28;20217;-84
2021/10/25 10:27:40;;;;;;;3.50;0.93;;;12.90;99.90;;;;;;4999243;28;20219;-84
2021/10/25 10:30:12;;;;;;;3.30;0.80;;;12.90;99.90;;;;;;4999618;28;20209;-85
2021/10/25 10:32:46;;;;;;;1.63;0.60;;;12.80;99.90;;;;;;5000040;28;20242;-84
2021/10/25 10:35:19;;;;;;;2.67;0.87;;;12.90;99.90;;;;;;4996679;28;20424;-84
2021/10/25 10:38:02;;;;;;;2.43;0.90;;;12.90;99.90;;;;;;4997163;28;20210;-84
2021/10/25 10:40:40;;;;;;;2.13;0.60;;;12.90;99.90;;;;;;4980354;28;20233;-85
2021/10/25 10:43:24;;;;;;;2.20;0.90;;;12.90;99.90;;;;;;4996978;28;20686;-84
2021/10/25 10:46:04;;;;;;;1.20;0.53;;;12.90;99.90;;;;;;5005312;28;20210;-85
2021/10/25 10:48:39;;;;;;;4.10;0.87;;;12.90;99.90;;;;;;5016822;28;20273;-85
2021/10/25 10:51:15;;;;;;;0.83;0.43;;;12.80;99.90;;;;;;5014786;28;20201;-85
2021/10/25 10:53:53;;;;;;;5.77;0.60;;;12.90;99.90;;;;;;5009762;28;20252;-85
2021/10/25 10:56:28;;;;;;;1.60;0.53;;;12.80;99.90;;;;;;5015467;28;20247;-85
2021/10/25 10:59:18;;;;;;;3.03;0.50;;;12.80;99.90;;;;;;5016757;28;20201;-85
2021/10/25 11:01:56;;;;;;;1.57;0.70;;;12.90;99.90;;;;;;5016950;28;20271;-85
2021/10/25 11:04:36;;;;;;;0.70;0.63;;;13.00;99.90;;;;;;5021768;28;20259;-85
2021/10/25 11:07:07;;;;;;;1.30;0.50;;;13.00;99.90;;;;;;5016139;28;20209;-85
2021/10/25 11:09:40;;;;;;;6.33;0.50;;;12.90;99.90;;;;;;5016404;28;20201;-85
2021/10/25 11:12:31;;;;;;;2.77;2.30;;;12.90;99.90;;;;;;5015890;28;20630;-85
2021/10/25 11:15:05;;;;;;;7.37;4.57;;;12.90;99.90;;;;;;5015565;28;20228;-84
2021/10/25 11:17:36;;;;;;;1.43;0.53;;;13.00;99.90;;;;;;5016428;28;20686;-85
2021/10/25 11:20:11;;;;;;;2.07;0.53;;;13.00;99.90;;;;;;5016975;28;20693;-85
2021/10/25 11:22:42;;;;;;;2.30;0.77;;;13.00;99.90;;;;;;5036125;28;20229;-84
2021/10/25 11:25:13;;;;;;;1.77;0.60;;;12.90;99.90;;;;;;5041534;28;20212;-84
2021/10/25 11:27:45;;;;;;;0.60;0.30;;;12.90;99.90;;;;;;5001010;28;20211;-85
2021/10/25 11:30:18;;;;;;;2.13;1.87;;;12.80;99.90;;;;;;4996500;28;20235;-85
2021/10/25 11:32:49;;;;;;;1.87;0.60;;;12.90;99.90;;;;;;4996119;28;20284;-86
2021/10/25 11:35:23;;;;;;;3.30;1.73;;;12.80;99.90;;;;;;4998299;28;20211;-85
2021/10/25 11:38:03;;;;;;;3.63;0.43;;;12.80;99.90;;;;;;4996393;28;20669;-86
2021/10/25 11:40:34;;;;;;;3.33;0.60;;;12.70;99.90;;;;;;5008078;28;20217;-86
2021/10/25 11:43:06;;;;;;;1.53;0.40;;;12.90;99.90;;;;;;5016032;28;20205;-85
2021/10/25 11:45:37;;;;;;;1.40;0.30;;;12.90;99.90;;;;;;4998469;28;20252;-85
2021/10/25 11:48:08;;;;;;;1.60;0.70;;;12.90;99.90;;;;;;4995837;28;20245;-84
2021/10/25 11:50:42;;;;;;;0.83;0.40;;;12.80;99.90;;;;;;5006126;28;20717;-86
2021/10/25 11:53:13;;;;;;;2.80;0.40;;;12.90;99.90;;;;;;5035201;28;20338;-84
2021/10/25 11:55:45;;;;;;;1.50;0.50;;;12.90;99.90;;;;;;5034919;28;20232;-85
2021/10/25 11:58:19;;;;;;;2.83;0.50;;;12.80;99.90;;;;;;5036195;28;20587;-85
2021/10/25 12:00:54;;;;;;;0.63;0.43;;;12.80;99.90;;;;;;5027801;28;20301;-84
2021/10/25 12:03:28;;;;;;;1.77;0.50;;;12.80;99.90;;;;;;5015029;28;20209;-85
2021/10/25 12:06:00;;;;;;;1.67;0.60;;;12.80;99.90;;;;;;5014421;28;20213;-85
2021/10/25 12:08:31;;;;;;;1.20;0.50;;;12.80;99.90;;;;;;5015328;28;20242;-85
2021/10/25 12:11:02;;;;;;;2.10;0.60;;;12.90;99.90;;;;;;5015447;28;20233;-85
2021/10/25 12:13:33;;;;;;;2.30;0.60;;;12.80;99.90;;;;;;5015875;28;20233;-85
2021/10/25 12:16:10;;;;;;;1.70;0.50;;;12.70;99.90;;;;;;5018078;28;20305;-85
2021/10/25 12:18:41;;;;;;;2.27;0.53;;;12.80;99.90;;;;;;5012732;28;20668;-85
2021/10/25 12:21:14;;;;;;;2.07;0.70;;;12.80;99.90;;;;;;5015440;28;20621;-85
2021/10/25 12:23:48;;;;;;;1.43;0.60;;;12.70;99.90;;;;;;5019374;28;20734;-86
2021/10/25 12:26:19;;;;;;;1.03;0.40;;;12.70;99.90;;;;;;5018640;28;20618;-85
2021/10/25 12:28:50;;;;;;;2.83;0.60;;;12.70;99.90;;;;;;5031948;28;20293;-85
2021/10/25 12:31:23;;;;;;;2.80;0.40;;;12.70;99.90;;;;;;5035730;28;20348;-85
2021/10/25 12:34:03;;;;;;;1.63;0.40;;;12.70;99.90;;;;;;5035007;28;20265;-84
2021/10/25 12:36:39;;;;;;;0.93;0.60;;;12.70;99.90;;;;;;5002464;28;20202;-85
2021/10/25 12:39:13;;;;;;;0.90;0.40;;;12.70;99.90;;;;;;5009060;28;20266;-85
2021/10/25 12:41:53;;;;;;;2.90;0.60;;;12.70;99.90;;;;;;5001856;28;20209;-84
2021/10/25 12:44:28;;;;;;;3.67;0.70;;;12.80;99.90;;;;;;5002336;28;20676;-85
2021/10/25 12:47:11;;;;;;;1.33;0.40;;;12.70;99.90;;;;;;4984259;28;20213;-85
2021/10/25 12:49:46;;;;;;;1.97;0.50;;;12.80;99.90;;;;;;5018548;28;20241;-86
2021/10/25 12:52:21;;;;;;;1.80;0.40;;;12.80;99.90;;;;;;5019529;28;20743;-85
2021/10/25 12:54:57;;;;;;;1.83;0.50;;;12.80;99.90;;;;;;5017425;28;20276;-90
2021/10/25 12:57:32;;;;;;;1.77;0.30;;;12.80;99.90;;;;;;5001546;28;20205;-85
2021/10/25 13:00:09;;;;;;;2.20;0.57;;;12.70;99.90;;;;;;5017473;28;20213;-85
2021/10/25 13:02:46;;;;;;;1.83;0.60;;;12.70;99.90;;;;;;5019039;28;20271;-84
2021/10/25 13:05:19;;;;;;;0.60;0.40;;;12.70;99.90;;;;;;5017408;28;20205;-85
2021/10/25 13:07:55;;;;;;;4.03;0.50;;;12.70;99.90;;;;;;5018132;28;20648;-85
2021/10/25 13:10:28;;;;;;;1.53;0.50;;;12.80;99.90;;;;;;5017805;28;20213;-85
2021/10/25 13:13:02;;;;;;;2.63;0.37;;;12.80;99.90;;;;;;5017126;28;20237;-84
2021/10/25 13:15:33;;;;;;;1.50;0.40;;;12.90;99.90;;;;;;5016427;28;20333;-85
2021/10/25 13:18:06;;;;;;;1.90;0.50;;;12.80;99.90;;;;;;5018949;28;20209;-85
2021/10/25 13:20:42;;;;;;;2.50;0.70;;;12.80;99.90;;;;;;5023508;28;20263;-84
2021/10/25 13:23:16;;;;;;;4.43;3.60;;;12.90;99.90;;;;;;5037980;28;20212;-85
2021/10/25 13:25:46;;;;;;;2.50;0.63;;;12.90;99.90;;;;;;5036185;28;20244;-85
2021/10/25 13:28:19;;;;;;;1.07;0.60;;;12.90;99.90;;;;;;5037328;28;20222;-85
2021/10/25 13:30:51;;;;;;;3.83;0.63;;;12.90;99.90;;;;;;5011694;28;20289;-85
2021/10/25 13:33:24;;;;;;;0.63;0.60;;;12.80;99.90;;;;;;4997582;28;20716;-84
2021/10/25 13:35:55;;;;;;;0.83;0.57;;;12.80;99.90;;;;;;4997104;28;20293;-84
2021/10/25 13:38:27;;;;;;;0.93;0.30;;;12.70;99.90;;;;;;4996926;28;20301;-85
2021/10/25 13:41:01;;;;;;;2.77;0.40;;;12.80;99.90;;;;;;5020016;28;20213;-85
2021/10/25 13:43:37;;;;;;;0.63;0.40;;;12.70;99.90;;;;;;5037662;28;20254;-84
2021/10/25 13:46:08;;;;;;;0.90;0.40;;;12.60;99.90;;;;;;5037680;28;20586;-83
2021/10/25 13:48:39;;;;;;;2.30;1.67;;;12.60;99.90;;;;;;5037387;28;20217;-84
2021/10/25 13:51:11;;;;;;;0.93;0.40;;;12.70;99.90;;;;;;5026193;28;20205;-84
2021/10/25 13:53:45;;;;;;;4.57;3.93;;;12.70;99.90;;;;;;5037286;28;20261;-85
2021/10/25 13:56:18;;;;;;;2.80;0.73;;;12.70;99.90;;;;;;5036403;28;20668;-85
2021/10/25 13:58:49;;;;;;;2.33;0.60;;;12.70;99.90;;;;;;5036866;28;20213;-84
2021/10/25 14:01:21;;;;;;;0.60;0.40;;;12.80;99.90;;;;;;5037111;28;20240;-85
2021/10/25 14:03:53;;;;;;;0.87;0.33;;;12.70;99.90;;;;;;5036789;28;20286;-85
2021/10/25 14:06:27;;;;;;;0.63;0.30;;;12.70;99.90;;;;;;5030931;28;20244;-85
2021/10/25 14:09:00;;;;;;;0.73;0.30;;;12.60;99.90;;;;;;5017518;28;20241;-84
2021/10/25 14:11:37;;;;;;;1.47;0.40;;;12.70;99.90;;;;;;5017527;28;20274;-85
2021/10/25 14:14:12;;;;;;;0.90;0.30;;;12.70;99.90;;;;;;5017271;28;20676;-86
2021/10/25 14:16:49;;;;;;;0.70;0.40;;;12.60;99.90;;;;;;5015965;28;20213;-85
2021/10/25 14:19:23;;;;;;;0.77;0.30;;;12.60;99.90;;;;;;5019672;28;20197;-85
2021/10/25 14:21:58;;;;;;;1.10;0.50;;;12.60;99.90;;;;;;5011635;28;20208;-86
2021/10/25 14:24:34;;;;;;;1.17;0.47;;;12.60;99.90;;;;;;5019892;28;20596;-86
2021/10/25 14:27:06;;;;;;;1.37;0.30;;;12.60;99.90;;;;;;5010497;28;20233;-86
2021/10/25 14:29:38;;;;;;;2.00;1.80;;;12.50;99.90;;;;;;5009093;28;20205;-85
2021/10/25 14:32:10;;;;;;;0.63;0.37;;;12.70;99.90;;;;;;5029501;28;20206;-85
2021/10/25 14:34:43;;;;;;;1.97;0.50;;;12.70;99.90;;;;;;5020155;28;20291;-85
2021/10/25 14:37:16;;;;;;;1.50;0.50;;;12.60;99.90;;;;;;5015590;28;20209;-85
2021/10/25 14:39:49;;;;;;;2.87;1.60;;;12.70;99.90;;;;;;5017126;28;20202;-85
2021/10/25 14:42:22;;;;;;;1.20;0.47;;;12.80;99.90;;;;;;5011263;28;20272;-86
2021/10/25 14:44:58;;;;;;;3.00;0.43;;;12.80;99.90;;;;;;5016384;28;20294;-85